sensor_id;sensor_type;location;lat;lon;timestamp;temperature;humidity
42663;DHT22;44330;51.360;6.686;2022-07-01T00:00:49;15.00;88.30
42663;DHT22;44330;51.360;6.686;2022-07-01T00:03:15;15.00;88.50
42663;DHT22;44330;51.360;6.686;2022-07-01T00:05:41;15.00;88.30
42663;DHT22;44330;51.360;6.686;2022-07-01T00:08:06;15.00;87.60
42663;DHT22;44330;51.360;6.686;2022-07-01T00:10:35;15.00;88.20
42663;DHT22;44330;51.360;6.686;2022-07-01T00:13:03;15.00;88.50
42663;DHT22;44330;51.360;6.686;2022-07-01T00:15:28;15.00;87.50
42663;DHT22;44330;51.360;6.686;2022-07-01T00:17:54;15.00;87.20
42663;DHT22;44330;51.360;6.686;2022-07-01T00:20:22;15.00;87.70
42663;DHT22;44330;51.360;6.686;2022-07-01T00:22:48;15.00;88.00
42663;DHT22;44330;51.360;6.686;2022-07-01T00:25:14;15.10;86.80
42663;DHT22;44330;51.360;6.686;2022-07-01T00:27:40;15.10;87.10
42663;DHT22;44330;51.360;6.686;2022-07-01T00:30:08;15.00;88.00
42663;DHT22;44330;51.360;6.686;2022-07-01T00:32:34;15.00;87.40
42663;DHT22;44330;51.360;6.686;2022-07-01T00:35:00;15.00;86.90
42663;DHT22;44330;51.360;6.686;2022-07-01T00:37:25;15.10;85.70
42663;DHT22;44330;51.360;6.686;2022-07-01T00:39:51;15.00;86.30
42663;DHT22;44330;51.360;6.686;2022-07-01T00:42:17;15.00;86.70
42663;DHT22;44330;51.360;6.686;2022-07-01T00:44:42;15.00;86.90
42663;DHT22;44330;51.360;6.686;2022-07-01T00:47:10;15.00;86.90
42663;DHT22;44330;51.360;6.686;2022-07-01T00:49:37;15.00;86.90
42663;DHT22;44330;51.360;6.686;2022-07-01T00:52:04;14.90;87.40
42663;DHT22;44330;51.360;6.686;2022-07-01T00:54:31;14.90;87.90
42663;DHT22;44330;51.360;6.686;2022-07-01T00:56:59;14.90;87.50
42663;DHT22;44330;51.360;6.686;2022-07-01T00:59:25;15.00;86.50
42663;DHT22;44330;51.360;6.686;2022-07-01T01:01:56;15.00;85.90
42663;DHT22;44330;51.360;6.686;2022-07-01T01:04:22;15.00;86.50
42663;DHT22;44330;51.360;6.686;2022-07-01T01:06:51;14.90;86.30
42663;DHT22;44330;51.360;6.686;2022-07-01T01:09:17;14.90;86.10
42663;DHT22;44330;51.360;6.686;2022-07-01T01:11:45;14.90;87.00
42663;DHT22;44330;51.360;6.686;2022-07-01T01:14:11;14.80;86.60
42663;DHT22;44330;51.360;6.686;2022-07-01T01:16:40;14.80;87.30
42663;DHT22;44330;51.360;6.686;2022-07-01T01:19:05;14.80;86.90
42663;DHT22;44330;51.360;6.686;2022-07-01T01:21:34;14.70;87.30
42663;DHT22;44330;51.360;6.686;2022-07-01T01:24:00;14.70;87.60
42663;DHT22;44330;51.360;6.686;2022-07-01T01:26:26;14.70;87.50
42663;DHT22;44330;51.360;6.686;2022-07-01T01:28:52;14.70;87.50
42663;DHT22;44330;51.360;6.686;2022-07-01T01:31:30;14.70;86.40
42663;DHT22;44330;51.360;6.686;2022-07-01T01:33:59;14.70;84.90
42663;DHT22;44330;51.360;6.686;2022-07-01T01:36:25;14.70;86.30
42663;DHT22;44330;51.360;6.686;2022-07-01T01:38:51;14.70;86.20
42663;DHT22;44330;51.360;6.686;2022-07-01T01:41:17;14.70;86.20
42663;DHT22;44330;51.360;6.686;2022-07-01T01:43:43;14.70;86.10
42663;DHT22;44330;51.360;6.686;2022-07-01T01:46:08;14.70;85.70
42663;DHT22;44330;51.360;6.686;2022-07-01T01:48:36;14.70;85.80
42663;DHT22;44330;51.360;6.686;2022-07-01T01:51:02;14.60;86.20
42663;DHT22;44330;51.360;6.686;2022-07-01T01:53:28;14.60;86.50
42663;DHT22;44330;51.360;6.686;2022-07-01T01:55:56;14.60;87.20
42663;DHT22;44330;51.360;6.686;2022-07-01T01:58:22;14.60;85.40
42663;DHT22;44330;51.360;6.686;2022-07-01T02:00:48;14.50;86.10
42663;DHT22;44330;51.360;6.686;2022-07-01T02:03:13;14.40;87.00
42663;DHT22;44330;51.360;6.686;2022-07-01T02:05:39;14.40;87.30
42663;DHT22;44330;51.360;6.686;2022-07-01T02:08:08;14.40;87.10
42663;DHT22;44330;51.360;6.686;2022-07-01T02:10:33;14.40;87.50
42663;DHT22;44330;51.360;6.686;2022-07-01T02:12:59;14.50;86.70
42663;DHT22;44330;51.360;6.686;2022-07-01T02:15:25;14.40;87.30
42663;DHT22;44330;51.360;6.686;2022-07-01T02:17:50;14.40;87.40
42663;DHT22;44330;51.360;6.686;2022-07-01T02:20:19;14.40;87.50
42663;DHT22;44330;51.360;6.686;2022-07-01T02:22:45;14.40;87.30
42663;DHT22;44330;51.360;6.686;2022-07-01T02:25:11;14.40;87.10
42663;DHT22;44330;51.360;6.686;2022-07-01T02:27:36;14.40;87.50
42663;DHT22;44330;51.360;6.686;2022-07-01T02:30:04;14.40;88.00
42663;DHT22;44330;51.360;6.686;2022-07-01T02:32:31;14.40;88.50
42663;DHT22;44330;51.360;6.686;2022-07-01T02:34:56;14.40;87.40
42663;DHT22;44330;51.360;6.686;2022-07-01T02:37:22;14.40;87.80
42663;DHT22;44330;51.360;6.686;2022-07-01T02:39:48;14.30;88.70
42663;DHT22;44330;51.360;6.686;2022-07-01T02:42:13;14.30;89.50
42663;DHT22;44330;51.360;6.686;2022-07-01T02:44:54;14.40;89.70
42663;DHT22;44330;51.360;6.686;2022-07-01T02:47:21;14.40;88.60
42663;DHT22;44330;51.360;6.686;2022-07-01T02:49:47;14.40;89.10
42663;DHT22;44330;51.360;6.686;2022-07-01T02:52:15;14.40;89.30
42663;DHT22;44330;51.360;6.686;2022-07-01T02:54:42;14.50;88.40
42663;DHT22;44330;51.360;6.686;2022-07-01T02:57:08;14.40;88.70
42663;DHT22;44330;51.360;6.686;2022-07-01T02:59:34;14.40;89.20
42663;DHT22;44330;51.360;6.686;2022-07-01T03:01:59;14.40;89.50
42663;DHT22;44330;51.360;6.686;2022-07-01T03:04:26;14.40;90.10
42663;DHT22;44330;51.360;6.686;2022-07-01T03:06:52;14.30;90.20
42663;DHT22;44330;51.360;6.686;2022-07-01T03:09:17;14.40;90.40
42663;DHT22;44330;51.360;6.686;2022-07-01T03:11:43;14.40;90.20
42663;DHT22;44330;51.360;6.686;2022-07-01T03:14:08;14.40;90.20
42663;DHT22;44330;51.360;6.686;2022-07-01T03:16:34;14.40;90.20
42663;DHT22;44330;51.360;6.686;2022-07-01T03:18:59;14.50;89.90
42663;DHT22;44330;51.360;6.686;2022-07-01T03:21:27;14.50;89.70
42663;DHT22;44330;51.360;6.686;2022-07-01T03:23:52;14.40;89.70
42663;DHT22;44330;51.360;6.686;2022-07-01T03:26:18;14.40;89.70
42663;DHT22;44330;51.360;6.686;2022-07-01T03:28:43;14.40;90.00
42663;DHT22;44330;51.360;6.686;2022-07-01T03:31:09;14.40;90.10
42663;DHT22;44330;51.360;6.686;2022-07-01T03:33:34;14.50;90.00
42663;DHT22;44330;51.360;6.686;2022-07-01T03:36:00;14.50;88.30
42663;DHT22;44330;51.360;6.686;2022-07-01T03:38:25;14.50;88.30
42663;DHT22;44330;51.360;6.686;2022-07-01T03:40:51;14.50;89.00
42663;DHT22;44330;51.360;6.686;2022-07-01T03:43:16;14.60;87.60
42663;DHT22;44330;51.360;6.686;2022-07-01T03:45:42;14.60;87.90
42663;DHT22;44330;51.360;6.686;2022-07-01T03:48:07;14.60;88.60
42663;DHT22;44330;51.360;6.686;2022-07-01T03:50:33;14.60;89.20
42663;DHT22;44330;51.360;6.686;2022-07-01T03:52:59;14.50;89.60
42663;DHT22;44330;51.360;6.686;2022-07-01T03:55:43;14.50;90.20
42663;DHT22;44330;51.360;6.686;2022-07-01T03:58:08;14.50;90.10
42663;DHT22;44330;51.360;6.686;2022-07-01T04:00:35;14.50;90.20
42663;DHT22;44330;51.360;6.686;2022-07-01T04:03:01;14.50;90.10
42663;DHT22;44330;51.360;6.686;2022-07-01T04:05:27;14.60;90.10
42663;DHT22;44330;51.360;6.686;2022-07-01T04:07:53;14.50;90.10
42663;DHT22;44330;51.360;6.686;2022-07-01T04:10:19;14.50;89.90
42663;DHT22;44330;51.360;6.686;2022-07-01T04:12:44;14.60;89.70
42663;DHT22;44330;51.360;6.686;2022-07-01T04:15:10;14.60;89.90
42663;DHT22;44330;51.360;6.686;2022-07-01T04:17:36;14.60;90.00
42663;DHT22;44330;51.360;6.686;2022-07-01T04:20:02;14.60;88.40
42663;DHT22;44330;51.360;6.686;2022-07-01T04:22:28;14.70;89.00
42663;DHT22;44330;51.360;6.686;2022-07-01T04:25:01;14.60;89.00
42663;DHT22;44330;51.360;6.686;2022-07-01T04:27:29;14.70;89.60
42663;DHT22;44330;51.360;6.686;2022-07-01T04:29:55;14.70;89.60
42663;DHT22;44330;51.360;6.686;2022-07-01T04:32:20;14.80;87.60
42663;DHT22;44330;51.360;6.686;2022-07-01T04:34:46;14.80;88.10
42663;DHT22;44330;51.360;6.686;2022-07-01T04:37:11;14.80;86.90
42663;DHT22;44330;51.360;6.686;2022-07-01T04:39:37;14.80;86.70
42663;DHT22;44330;51.360;6.686;2022-07-01T04:42:03;14.90;86.40
42663;DHT22;44330;51.360;6.686;2022-07-01T04:44:34;14.90;86.20
42663;DHT22;44330;51.360;6.686;2022-07-01T04:47:01;14.80;87.20
42663;DHT22;44330;51.360;6.686;2022-07-01T04:49:27;14.80;87.50
42663;DHT22;44330;51.360;6.686;2022-07-01T04:51:53;14.80;86.00
42663;DHT22;44330;51.360;6.686;2022-07-01T04:54:19;14.80;86.60
42663;DHT22;44330;51.360;6.686;2022-07-01T04:56:45;14.80;84.50
42663;DHT22;44330;51.360;6.686;2022-07-01T04:59:11;14.80;84.50
42663;DHT22;44330;51.360;6.686;2022-07-01T05:01:37;14.80;85.20
42663;DHT22;44330;51.360;6.686;2022-07-01T05:04:02;14.70;85.60
42663;DHT22;44330;51.360;6.686;2022-07-01T05:06:28;14.80;84.40
42663;DHT22;44330;51.360;6.686;2022-07-01T05:08:54;14.80;85.00
42663;DHT22;44330;51.360;6.686;2022-07-01T05:11:20;14.80;83.80
42663;DHT22;44330;51.360;6.686;2022-07-01T05:13:45;14.80;84.80
42663;DHT22;44330;51.360;6.686;2022-07-01T05:16:10;14.80;85.70
42663;DHT22;44330;51.360;6.686;2022-07-01T05:18:37;14.80;84.40
42663;DHT22;44330;51.360;6.686;2022-07-01T05:21:21;14.80;85.10
42663;DHT22;44330;51.360;6.686;2022-07-01T05:24:06;14.80;85.60
42663;DHT22;44330;51.360;6.686;2022-07-01T05:26:31;14.70;85.80
42663;DHT22;44330;51.360;6.686;2022-07-01T05:28:57;14.70;85.50
42663;DHT22;44330;51.360;6.686;2022-07-01T05:31:23;14.80;86.30
42663;DHT22;44330;51.360;6.686;2022-07-01T05:33:48;14.80;84.80
42663;DHT22;44330;51.360;6.686;2022-07-01T05:36:14;14.80;85.70
42663;DHT22;44330;51.360;6.686;2022-07-01T05:38:40;14.80;86.60
42663;DHT22;44330;51.360;6.686;2022-07-01T05:41:06;14.80;86.90
42663;DHT22;44330;51.360;6.686;2022-07-01T05:43:32;14.90;87.00
42663;DHT22;44330;51.360;6.686;2022-07-01T05:45:58;14.90;85.90
42663;DHT22;44330;51.360;6.686;2022-07-01T05:48:23;14.90;85.90
42663;DHT22;44330;51.360;6.686;2022-07-01T05:50:50;14.90;85.00
42663;DHT22;44330;51.360;6.686;2022-07-01T05:53:16;15.10;83.80
42663;DHT22;44330;51.360;6.686;2022-07-01T05:55:41;15.10;84.80
42663;DHT22;44330;51.360;6.686;2022-07-01T05:58:08;15.20;84.00
42663;DHT22;44330;51.360;6.686;2022-07-01T06:00:34;15.30;83.90
42663;DHT22;44330;51.360;6.686;2022-07-01T06:03:00;15.30;81.40
42663;DHT22;44330;51.360;6.686;2022-07-01T06:05:26;15.30;83.10
42663;DHT22;44330;51.360;6.686;2022-07-01T06:07:51;15.40;84.50
42663;DHT22;44330;51.360;6.686;2022-07-01T06:10:17;15.40;83.20
42663;DHT22;44330;51.360;6.686;2022-07-01T06:12:43;15.40;81.50
42663;DHT22;44330;51.360;6.686;2022-07-01T06:15:11;15.50;81.30
42663;DHT22;44330;51.360;6.686;2022-07-01T06:17:38;15.50;82.50
42663;DHT22;44330;51.360;6.686;2022-07-01T06:20:04;15.50;82.70
42663;DHT22;44330;51.360;6.686;2022-07-01T06:22:30;15.60;81.00
42663;DHT22;44330;51.360;6.686;2022-07-01T06:24:56;15.70;79.20
42663;DHT22;44330;51.360;6.686;2022-07-01T06:27:22;15.70;76.70
42663;DHT22;44330;51.360;6.686;2022-07-01T06:29:49;15.70;76.70
42663;DHT22;44330;51.360;6.686;2022-07-01T06:32:14;15.70;77.60
42663;DHT22;44330;51.360;6.686;2022-07-01T06:34:40;15.70;78.30
42663;DHT22;44330;51.360;6.686;2022-07-01T06:37:05;15.80;79.50
42663;DHT22;44330;51.360;6.686;2022-07-01T06:39:31;15.80;78.30
42663;DHT22;44330;51.360;6.686;2022-07-01T06:41:57;15.80;76.00
42663;DHT22;44330;51.360;6.686;2022-07-01T06:44:22;15.90;75.50
42663;DHT22;44330;51.360;6.686;2022-07-01T06:46:48;15.90;75.50
42663;DHT22;44330;51.360;6.686;2022-07-01T06:49:14;16.00;73.10
42663;DHT22;44330;51.360;6.686;2022-07-01T06:51:40;16.00;71.90
42663;DHT22;44330;51.360;6.686;2022-07-01T06:54:06;15.90;71.80
42663;DHT22;44330;51.360;6.686;2022-07-01T06:56:32;15.90;73.20
42663;DHT22;44330;51.360;6.686;2022-07-01T06:58:57;16.00;71.20
42663;DHT22;44330;51.360;6.686;2022-07-01T07:01:23;16.10;69.00
42663;DHT22;44330;51.360;6.686;2022-07-01T07:03:49;16.10;68.10
42663;DHT22;44330;51.360;6.686;2022-07-01T07:06:14;16.10;71.60
42663;DHT22;44330;51.360;6.686;2022-07-01T07:08:40;16.10;70.00
42663;DHT22;44330;51.360;6.686;2022-07-01T07:11:06;16.10;72.50
42663;DHT22;44330;51.360;6.686;2022-07-01T07:13:37;16.10;69.10
42663;DHT22;44330;51.360;6.686;2022-07-01T07:16:03;16.20;67.70
42663;DHT22;44330;51.360;6.686;2022-07-01T07:18:29;16.30;70.90
42663;DHT22;44330;51.360;6.686;2022-07-01T07:20:54;16.40;68.60
42663;DHT22;44330;51.360;6.686;2022-07-01T07:23:20;16.50;60.30
42663;DHT22;44330;51.360;6.686;2022-07-01T07:25:46;16.60;62.70
42663;DHT22;44330;51.360;6.686;2022-07-01T07:28:12;16.70;60.00
42663;DHT22;44330;51.360;6.686;2022-07-01T07:30:37;16.70;59.00
42663;DHT22;44330;51.360;6.686;2022-07-01T07:33:03;16.80;61.90
42663;DHT22;44330;51.360;6.686;2022-07-01T07:35:29;16.90;50.00
42663;DHT22;44330;51.360;6.686;2022-07-01T07:37:54;17.10;59.10
42663;DHT22;44330;51.360;6.686;2022-07-01T07:40:20;17.30;56.80
42663;DHT22;44330;51.360;6.686;2022-07-01T07:42:46;17.40;55.30
42663;DHT22;44330;51.360;6.686;2022-07-01T07:45:13;17.60;57.90
42663;DHT22;44330;51.360;6.686;2022-07-01T07:47:42;17.80;46.60
42663;DHT22;44330;51.360;6.686;2022-07-01T07:50:10;17.80;50.30
42663;DHT22;44330;51.360;6.686;2022-07-01T07:52:36;17.80;41.70
42663;DHT22;44330;51.360;6.686;2022-07-01T07:55:02;17.70;47.20
42663;DHT22;44330;51.360;6.686;2022-07-01T07:57:28;17.70;51.40
42663;DHT22;44330;51.360;6.686;2022-07-01T07:59:53;17.70;46.30
42663;DHT22;44330;51.360;6.686;2022-07-01T08:02:19;17.70;39.80
42663;DHT22;44330;51.360;6.686;2022-07-01T08:04:45;17.70;37.70
42663;DHT22;44330;51.360;6.686;2022-07-01T08:07:10;17.90;39.50
42663;DHT22;44330;51.360;6.686;2022-07-01T08:09:36;18.00;38.00
42663;DHT22;44330;51.360;6.686;2022-07-01T08:12:02;18.00;42.90
42663;DHT22;44330;51.360;6.686;2022-07-01T08:14:28;18.10;36.50
42663;DHT22;44330;51.360;6.686;2022-07-01T08:16:54;18.20;35.30
42663;DHT22;44330;51.360;6.686;2022-07-01T08:19:20;18.20;34.80
42663;DHT22;44330;51.360;6.686;2022-07-01T08:21:45;18.30;34.30
42663;DHT22;44330;51.360;6.686;2022-07-01T08:24:11;18.30;29.60
42663;DHT22;44330;51.360;6.686;2022-07-01T08:26:37;18.40;26.30
42663;DHT22;44330;51.360;6.686;2022-07-01T08:29:03;18.60;32.50
42663;DHT22;44330;51.360;6.686;2022-07-01T08:31:28;18.60;27.40
42663;DHT22;44330;51.360;6.686;2022-07-01T08:33:55;18.80;23.20
42663;DHT22;44330;51.360;6.686;2022-07-01T08:36:20;19.10;36.10
42663;DHT22;44330;51.360;6.686;2022-07-01T08:38:46;19.50;24.10
42663;DHT22;44330;51.360;6.686;2022-07-01T08:41:13;20.00;8.80
42663;DHT22;44330;51.360;6.686;2022-07-01T08:43:39;20.20;1.00
42663;DHT22;44330;51.360;6.686;2022-07-01T08:46:07;20.40;1.00
42663;DHT22;44330;51.360;6.686;2022-07-01T08:48:33;20.60;1.00
42663;DHT22;44330;51.360;6.686;2022-07-01T08:50:59;20.90;1.00
42663;DHT22;44330;51.360;6.686;2022-07-01T08:53:30;21.00;1.00
42663;DHT22;44330;51.360;6.686;2022-07-01T08:55:57;20.90;99.90
42663;DHT22;44330;51.360;6.686;2022-07-01T08:58:42;20.70;1.00
42663;DHT22;44330;51.360;6.686;2022-07-01T09:01:21;21.00;1.00
42663;DHT22;44330;51.360;6.686;2022-07-01T09:03:47;21.20;99.90
42663;DHT22;44330;51.360;6.686;2022-07-01T09:06:20;21.20;99.90
42663;DHT22;44330;51.360;6.686;2022-07-01T09:08:47;21.20;99.90
42663;DHT22;44330;51.360;6.686;2022-07-01T09:11:13;21.30;1.00
42663;DHT22;44330;51.360;6.686;2022-07-01T09:13:40;21.50;99.90
42663;DHT22;44330;51.360;6.686;2022-07-01T09:16:16;21.60;99.90
42663;DHT22;44330;51.360;6.686;2022-07-01T09:19:01;21.60;1.00
42663;DHT22;44330;51.360;6.686;2022-07-01T09:21:29;21.50;99.90
42663;DHT22;44330;51.360;6.686;2022-07-01T09:23:56;21.40;1.00
42663;DHT22;44330;51.360;6.686;2022-07-01T09:26:22;21.20;99.90
42663;DHT22;44330;51.360;6.686;2022-07-01T09:28:57;21.00;99.90
42663;DHT22;44330;51.360;6.686;2022-07-01T09:31:32;21.00;97.00
42663;DHT22;44330;51.360;6.686;2022-07-01T09:34:05;21.10;11.20
42663;DHT22;44330;51.360;6.686;2022-07-01T09:36:31;21.20;1.00
42663;DHT22;44330;51.360;6.686;2022-07-01T09:38:56;21.20;99.90
42663;DHT22;44330;51.360;6.686;2022-07-01T09:41:25;21.20;99.90
42663;DHT22;44330;51.360;6.686;2022-07-01T09:43:51;21.10;99.90
42663;DHT22;44330;51.360;6.686;2022-07-01T09:46:16;20.90;9.20
42663;DHT22;44330;51.360;6.686;2022-07-01T09:48:44;20.80;99.90
42663;DHT22;44330;51.360;6.686;2022-07-01T09:51:11;20.80;89.70
42663;DHT22;44330;51.360;6.686;2022-07-01T09:53:37;21.00;99.90
42663;DHT22;44330;51.360;6.686;2022-07-01T09:56:03;21.30;99.90
42663;DHT22;44330;51.360;6.686;2022-07-01T09:58:29;21.40;99.90
42663;DHT22;44330;51.360;6.686;2022-07-01T10:00:57;21.40;99.90
42663;DHT22;44330;51.360;6.686;2022-07-01T10:03:26;21.50;1.00
42663;DHT22;44330;51.360;6.686;2022-07-01T10:05:57;21.30;99.90
42663;DHT22;44330;51.360;6.686;2022-07-01T10:11:38;21.20;99.90
42663;DHT22;44330;51.360;6.686;2022-07-01T10:14:06;21.50;93.30
42663;DHT22;44330;51.360;6.686;2022-07-01T10:16:34;21.60;99.90
42663;DHT22;44330;51.360;6.686;2022-07-01T10:19:28;21.70;99.90
42663;DHT22;44330;51.360;6.686;2022-07-01T10:21:53;21.70;70.40
42663;DHT22;44330;51.360;6.686;2022-07-01T10:24:22;22.20;92.00
42663;DHT22;44330;51.360;6.686;2022-07-01T10:26:48;22.60;1.00
42663;DHT22;44330;51.360;6.686;2022-07-01T10:29:36;22.80;99.90
42663;DHT22;44330;51.360;6.686;2022-07-01T10:32:09;22.60;99.90
42663;DHT22;44330;51.360;6.686;2022-07-01T10:34:41;22.40;99.90
42663;DHT22;44330;51.360;6.686;2022-07-01T10:37:09;22.30;60.40
42663;DHT22;44330;51.360;6.686;2022-07-01T10:42:19;22.80;99.90
42663;DHT22;44330;51.360;6.686;2022-07-01T10:45:02;23.10;99.90
42663;DHT22;44330;51.360;6.686;2022-07-01T10:47:28;23.00;99.90
42663;DHT22;44330;51.360;6.686;2022-07-01T10:50:14;23.00;90.20
42663;DHT22;44330;51.360;6.686;2022-07-01T10:53:01;22.90;99.90
42663;DHT22;44330;51.360;6.686;2022-07-01T10:55:38;23.30;99.90
42663;DHT22;44330;51.360;6.686;2022-07-01T10:58:04;23.50;1.00
42663;DHT22;44330;51.360;6.686;2022-07-01T11:00:32;23.70;96.30
42663;DHT22;44330;51.360;6.686;2022-07-01T11:03:13;24.00;24.10
42663;DHT22;44330;51.360;6.686;2022-07-01T11:05:40;24.30;99.90
42663;DHT22;44330;51.360;6.686;2022-07-01T11:08:07;24.50;99.90
42663;DHT22;44330;51.360;6.686;2022-07-01T11:10:33;24.40;99.90
42663;DHT22;44330;51.360;6.686;2022-07-01T11:13:00;24.40;99.90
42663;DHT22;44330;51.360;6.686;2022-07-01T11:15:29;24.40;20.80
42663;DHT22;44330;51.360;6.686;2022-07-01T11:17:56;24.40;99.90
42663;DHT22;44330;51.360;6.686;2022-07-01T11:20:23;24.40;1.00
42663;DHT22;44330;51.360;6.686;2022-07-01T11:22:50;24.60;1.00
42663;DHT22;44330;51.360;6.686;2022-07-01T11:25:18;24.90;67.30
42663;DHT22;44330;51.360;6.686;2022-07-01T11:27:48;25.00;99.90
42663;DHT22;44330;51.360;6.686;2022-07-01T11:30:16;24.80;99.90
42663;DHT22;44330;51.360;6.686;2022-07-01T11:32:47;24.70;1.00
42663;DHT22;44330;51.360;6.686;2022-07-01T11:35:21;24.70;1.00
42663;DHT22;44330;51.360;6.686;2022-07-01T11:38:17;24.80;99.90
42663;DHT22;44330;51.360;6.686;2022-07-01T11:41:03;24.40;99.90
42663;DHT22;44330;51.360;6.686;2022-07-01T11:43:35;24.10;99.90
42663;DHT22;44330;51.360;6.686;2022-07-01T11:46:02;24.30;99.90
42663;DHT22;44330;51.360;6.686;2022-07-01T11:48:30;24.40;99.90
42663;DHT22;44330;51.360;6.686;2022-07-01T11:50:57;24.50;99.90
42663;DHT22;44330;51.360;6.686;2022-07-01T11:53:23;24.90;99.90
42663;DHT22;44330;51.360;6.686;2022-07-01T11:55:49;25.20;99.90
42663;DHT22;44330;51.360;6.686;2022-07-01T11:58:15;25.50;99.90
42663;DHT22;44330;51.360;6.686;2022-07-01T12:00:40;25.40;99.90
42663;DHT22;44330;51.360;6.686;2022-07-01T12:03:06;24.90;99.90
42663;DHT22;44330;51.360;6.686;2022-07-01T12:05:34;24.70;99.90
42663;DHT22;44330;51.360;6.686;2022-07-01T12:08:00;24.70;99.90
42663;DHT22;44330;51.360;6.686;2022-07-01T12:10:26;24.70;99.90
42663;DHT22;44330;51.360;6.686;2022-07-01T12:12:52;24.50;99.90
42663;DHT22;44330;51.360;6.686;2022-07-01T12:15:17;24.30;99.90
42663;DHT22;44330;51.360;6.686;2022-07-01T12:17:43;24.50;99.90
42663;DHT22;44330;51.360;6.686;2022-07-01T12:20:09;24.60;99.90
42663;DHT22;44330;51.360;6.686;2022-07-01T12:22:34;24.40;99.90
42663;DHT22;44330;51.360;6.686;2022-07-01T12:25:13;24.40;99.90
42663;DHT22;44330;51.360;6.686;2022-07-01T12:27:40;24.00;99.90
42663;DHT22;44330;51.360;6.686;2022-07-01T12:30:07;23.80;99.90
42663;DHT22;44330;51.360;6.686;2022-07-01T12:32:38;23.90;99.90
42663;DHT22;44330;51.360;6.686;2022-07-01T12:35:08;23.90;99.90
42663;DHT22;44330;51.360;6.686;2022-07-01T12:37:54;24.10;99.90
42663;DHT22;44330;51.360;6.686;2022-07-01T12:40:24;24.30;99.90
42663;DHT22;44330;51.360;6.686;2022-07-01T12:42:50;24.50;99.90
42663;DHT22;44330;51.360;6.686;2022-07-01T12:45:21;25.00;99.90
42663;DHT22;44330;51.360;6.686;2022-07-01T12:47:49;25.20;99.90
42663;DHT22;44330;51.360;6.686;2022-07-01T12:50:23;25.00;99.90
42663;DHT22;44330;51.360;6.686;2022-07-01T12:53:09;24.80;99.90
42663;DHT22;44330;51.360;6.686;2022-07-01T12:55:37;24.40;99.90
42663;DHT22;44330;51.360;6.686;2022-07-01T12:58:05;24.30;99.90
42663;DHT22;44330;51.360;6.686;2022-07-01T13:00:31;24.20;99.90
42663;DHT22;44330;51.360;6.686;2022-07-01T13:02:59;24.40;99.90
42663;DHT22;44330;51.360;6.686;2022-07-01T13:05:25;24.70;99.90
42663;DHT22;44330;51.360;6.686;2022-07-01T13:07:51;24.80;99.90
42663;DHT22;44330;51.360;6.686;2022-07-01T13:10:17;24.70;99.90
42663;DHT22;44330;51.360;6.686;2022-07-01T13:12:43;24.60;99.90
42663;DHT22;44330;51.360;6.686;2022-07-01T13:15:15;24.70;99.90
42663;DHT22;44330;51.360;6.686;2022-07-01T13:17:42;24.90;99.90
42663;DHT22;44330;51.360;6.686;2022-07-01T13:20:09;25.10;99.90
42663;DHT22;44330;51.360;6.686;2022-07-01T13:22:35;25.30;99.90
42663;DHT22;44330;51.360;6.686;2022-07-01T13:25:01;25.50;99.90
42663;DHT22;44330;51.360;6.686;2022-07-01T13:27:27;25.80;99.90
42663;DHT22;44330;51.360;6.686;2022-07-01T13:29:53;25.90;99.90
42663;DHT22;44330;51.360;6.686;2022-07-01T13:32:19;26.00;99.90
42663;DHT22;44330;51.360;6.686;2022-07-01T13:34:44;25.80;99.90
42663;DHT22;44330;51.360;6.686;2022-07-01T13:37:10;25.20;99.90
42663;DHT22;44330;51.360;6.686;2022-07-01T13:39:36;24.80;99.90
42663;DHT22;44330;51.360;6.686;2022-07-01T13:42:02;24.50;99.90
42663;DHT22;44330;51.360;6.686;2022-07-01T13:44:27;24.40;99.90
42663;DHT22;44330;51.360;6.686;2022-07-01T13:46:53;24.10;99.90
42663;DHT22;44330;51.360;6.686;2022-07-01T13:49:19;24.00;99.90
42663;DHT22;44330;51.360;6.686;2022-07-01T13:51:44;24.00;99.90
42663;DHT22;44330;51.360;6.686;2022-07-01T13:54:10;24.00;99.90
42663;DHT22;44330;51.360;6.686;2022-07-01T13:56:35;24.00;99.90
42663;DHT22;44330;51.360;6.686;2022-07-01T13:59:01;24.20;99.90
42663;DHT22;44330;51.360;6.686;2022-07-01T14:01:28;24.60;99.90
42663;DHT22;44330;51.360;6.686;2022-07-01T14:03:54;25.00;99.90
42663;DHT22;44330;51.360;6.686;2022-07-01T14:06:20;25.20;99.90
42663;DHT22;44330;51.360;6.686;2022-07-01T14:08:46;25.60;99.90
42663;DHT22;44330;51.360;6.686;2022-07-01T14:11:12;25.60;99.90
42663;DHT22;44330;51.360;6.686;2022-07-01T14:13:38;25.30;99.90
42663;DHT22;44330;51.360;6.686;2022-07-01T14:16:05;24.90;99.90
42663;DHT22;44330;51.360;6.686;2022-07-01T14:18:33;24.60;99.90
42663;DHT22;44330;51.360;6.686;2022-07-01T14:21:00;24.50;99.90
42663;DHT22;44330;51.360;6.686;2022-07-01T14:23:26;24.40;99.90
42663;DHT22;44330;51.360;6.686;2022-07-01T14:25:52;24.30;99.90
42663;DHT22;44330;51.360;6.686;2022-07-01T14:28:17;24.10;99.90
42663;DHT22;44330;51.360;6.686;2022-07-01T14:30:43;24.00;99.90
42663;DHT22;44330;51.360;6.686;2022-07-01T14:33:09;23.90;99.90
42663;DHT22;44330;51.360;6.686;2022-07-01T14:35:35;23.90;99.90
42663;DHT22;44330;51.360;6.686;2022-07-01T14:38:01;23.80;99.90
42663;DHT22;44330;51.360;6.686;2022-07-01T14:40:27;23.90;99.90
42663;DHT22;44330;51.360;6.686;2022-07-01T14:42:52;24.10;99.90
42663;DHT22;44330;51.360;6.686;2022-07-01T14:45:18;24.40;99.90
42663;DHT22;44330;51.360;6.686;2022-07-01T14:47:45;24.60;99.90
42663;DHT22;44330;51.360;6.686;2022-07-01T14:50:11;24.80;99.90
42663;DHT22;44330;51.360;6.686;2022-07-01T14:52:37;24.70;99.90
42663;DHT22;44330;51.360;6.686;2022-07-01T14:55:04;24.80;99.90
42663;DHT22;44330;51.360;6.686;2022-07-01T14:57:30;24.50;99.90
42663;DHT22;44330;51.360;6.686;2022-07-01T14:59:55;24.70;99.90
42663;DHT22;44330;51.360;6.686;2022-07-01T15:02:24;25.00;99.90
42663;DHT22;44330;51.360;6.686;2022-07-01T15:04:49;25.10;99.90
42663;DHT22;44330;51.360;6.686;2022-07-01T15:07:16;24.80;99.90
42663;DHT22;44330;51.360;6.686;2022-07-01T15:09:42;24.80;99.90
42663;DHT22;44330;51.360;6.686;2022-07-01T15:12:09;24.50;99.90
42663;DHT22;44330;51.360;6.686;2022-07-01T15:14:34;24.30;99.90
42663;DHT22;44330;51.360;6.686;2022-07-01T15:17:00;24.30;99.90
42663;DHT22;44330;51.360;6.686;2022-07-01T15:19:27;24.40;99.90
42663;DHT22;44330;51.360;6.686;2022-07-01T15:21:53;24.50;99.90
42663;DHT22;44330;51.360;6.686;2022-07-01T15:24:19;24.60;99.90
42663;DHT22;44330;51.360;6.686;2022-07-01T15:26:45;24.90;99.90
42663;DHT22;44330;51.360;6.686;2022-07-01T15:29:10;25.10;99.90
42663;DHT22;44330;51.360;6.686;2022-07-01T15:31:36;25.20;99.90
42663;DHT22;44330;51.360;6.686;2022-07-01T15:34:02;25.30;99.90
42663;DHT22;44330;51.360;6.686;2022-07-01T15:36:28;25.40;99.90
42663;DHT22;44330;51.360;6.686;2022-07-01T15:38:54;25.40;99.90